createdAt,value
2023-01-28T00:01:45.262Z,0.53
2023-01-28T00:06:47.517Z,0.80
2023-01-28T00:11:49.697Z,0.50
2023-01-28T00:16:51.933Z,0.40
2023-01-28T00:21:54.118Z,0.70
2023-01-28T00:26:56.296Z,0.70
2023-01-28T00:31:58.532Z,0.80
2023-01-28T00:37:04.644Z,0.80
2023-01-28T00:42:06.816Z,1.00
2023-01-28T00:47:09.004Z,1.13
2023-01-28T00:52:11.228Z,1.17
2023-01-28T00:57:13.493Z,0.83
2023-01-28T01:02:15.784Z,0.80
2023-01-28T01:07:23.338Z,1.03
2023-01-28T01:12:25.817Z,0.90
2023-01-28T01:17:31.896Z,1.27
2023-01-28T01:22:35.460Z,0.97
2023-01-28T01:27:38.252Z,1.27
2023-01-28T01:32:40.556Z,0.73
2023-01-28T01:37:44.973Z,0.80
2023-01-28T01:42:47.490Z,1.00
2023-01-28T01:48:06.558Z,1.10
2023-01-28T01:53:17.579Z,0.77
2023-01-28T01:58:22.946Z,1.07
2023-01-28T02:03:51.702Z,0.90
2023-01-28T02:08:57.909Z,1.07
2023-01-28T02:14:03.378Z,0.90
2023-01-28T02:19:06.821Z,1.20
2023-01-28T02:24:20.021Z,1.00
2023-01-28T02:29:32.341Z,0.90
2023-01-28T02:34:58.954Z,0.90
2023-01-28T02:40:13.717Z,1.10
2023-01-28T02:45:53.770Z,0.93
2023-01-28T02:51:03.734Z,1.25
2023-01-28T02:56:19.386Z,1.30
2023-01-28T03:01:24.633Z,1.30
2023-01-28T03:06:40.251Z,1.40
2023-01-28T03:12:05.477Z,2.00
2023-01-28T03:17:40.654Z,1.53
2023-01-28T03:23:04.512Z,1.90
2023-01-28T03:28:30.409Z,1.00
2023-01-28T03:33:54.372Z,1.20
2023-01-28T03:38:58.669Z,1.10
2023-01-28T03:44:19.414Z,1.40
2023-01-28T03:49:22.702Z,1.73
2023-01-28T03:54:24.987Z,1.30
2023-01-28T03:59:27.506Z,1.90
2023-01-28T04:04:32.819Z,1.73
2023-01-28T04:09:36.234Z,1.70
2023-01-28T04:15:01.355Z,1.77
2023-01-28T04:20:06.775Z,2.60
2023-01-28T04:25:09.985Z,2.03
2023-01-28T04:30:15.295Z,1.87
2023-01-28T04:35:27.826Z,1.90
2023-01-28T04:40:36.074Z,2.57
2023-01-28T04:45:45.179Z,1.73
2023-01-28T04:51:08.049Z,2.13
2023-01-28T04:56:15.686Z,1.60
2023-01-28T05:01:18.401Z,2.30
2023-01-28T05:06:20.698Z,1.90
2023-01-28T05:11:23.530Z,2.50
2023-01-28T05:16:32.662Z,3.60
2023-01-28T05:21:34.831Z,2.67
2023-01-28T05:26:43.648Z,2.70
2023-01-28T05:31:48.095Z,3.23
2023-01-28T05:36:53.082Z,2.87
2023-01-28T05:42:04.542Z,2.37
2023-01-28T05:47:09.071Z,2.13
2023-01-28T05:52:40.505Z,3.27
2023-01-28T05:57:50.050Z,2.17
2023-01-28T06:02:54.507Z,2.37
2023-01-28T06:07:58.173Z,1.67
2023-01-28T06:13:02.071Z,2.30
2023-01-28T06:18:15.946Z,2.07
2023-01-28T06:23:18.494Z,1.90
2023-01-28T06:28:20.819Z,1.67
2023-01-28T06:33:24.412Z,2.87
2023-01-28T06:38:26.710Z,2.20
2023-01-28T06:43:30.881Z,2.33
2023-01-28T06:48:33.326Z,2.10
2023-01-28T06:53:35.422Z,3.27
2023-01-28T06:58:37.546Z,2.20
2023-01-28T07:03:39.667Z,2.73
2023-01-28T07:08:41.929Z,2.83
2023-01-28T07:13:44.148Z,3.50
2023-01-28T07:18:49.093Z,2.80
2023-01-28T07:23:51.431Z,3.20
2023-01-28T07:28:53.544Z,2.93
2023-01-28T07:33:55.694Z,3.20
2023-01-28T07:39:00.368Z,2.60
2023-01-28T07:44:02.852Z,3.20
2023-01-28T07:49:04.940Z,3.03
2023-01-28T07:54:07.216Z,4.17
2023-01-28T07:59:09.566Z,3.70
2023-01-28T08:04:11.891Z,4.10
2023-01-28T08:09:14.669Z,3.97
2023-01-28T08:14:16.904Z,4.20
2023-01-28T08:19:28.384Z,4.43
2023-01-28T08:24:30.657Z,4.33
2023-01-28T08:29:33.422Z,4.50
2023-01-28T08:34:35.720Z,3.83
2023-01-28T08:39:38.050Z,3.70
2023-01-28T08:44:40.270Z,4.00
2023-01-28T08:49:42.518Z,4.70
2023-01-28T08:54:44.654Z,5.20
2023-01-28T08:59:47.787Z,4.10
2023-01-28T09:04:49.930Z,5.27
2023-01-28T09:09:52.030Z,4.80
2023-01-28T09:14:54.445Z,5.30
2023-01-28T09:19:56.766Z,5.07
2023-01-28T09:24:58.956Z,5.30
2023-01-28T09:30:01.236Z,5.73
2023-01-28T09:35:06.228Z,5.57
2023-01-28T09:40:26.299Z,5.50
2023-01-28T09:45:45.177Z,5.13
2023-01-28T09:50:49.998Z,5.10
2023-01-28T09:55:57.124Z,5.07
2023-01-28T10:01:19.347Z,4.93
2023-01-28T10:06:45.792Z,5.90
2023-01-28T10:11:51.047Z,5.73
2023-01-28T10:17:21.135Z,6.63
2023-01-28T10:22:27.472Z,5.50
2023-01-28T10:27:31.548Z,5.87
2023-01-28T10:32:35.629Z,7.17
2023-01-28T10:37:39.049Z,6.60
2023-01-28T10:42:41.261Z,5.80
2023-01-28T10:47:49.260Z,6.60
2023-01-28T10:52:59.239Z,5.30
2023-01-28T10:58:04.299Z,6.33
2023-01-28T11:03:06.711Z,5.83
2023-01-28T11:08:19.015Z,6.63
2023-01-28T11:13:22.656Z,6.53
2023-01-28T11:18:28.180Z,7.17
2023-01-28T11:23:34.502Z,6.77
2023-01-28T11:28:41.485Z,6.70
2023-01-28T11:33:49.608Z,7.77
2023-01-28T11:39:02.485Z,7.73
2023-01-28T11:44:24.463Z,6.97
2023-01-28T11:49:38.750Z,8.47
2023-01-28T11:55:07.033Z,9.47
2023-01-28T12:00:12.505Z,9.87
2023-01-28T12:05:18.003Z,9.43
2023-01-28T12:10:41.608Z,7.80
2023-01-28T12:16:00.510Z,10.03
2023-01-28T12:21:11.060Z,8.53
2023-01-28T12:26:17.107Z,8.13
2023-01-28T12:31:39.286Z,10.20
2023-01-28T12:36:46.270Z,10.47
2023-01-28T12:41:51.562Z,10.53
2023-01-28T12:47:02.819Z,9.73
2023-01-28T12:52:24.868Z,11.73
2023-01-28T12:57:29.050Z,8.70
2023-01-28T13:02:35.454Z,8.47
2023-01-28T13:08:10.595Z,7.60
2023-01-28T13:13:36.666Z,8.93
2023-01-28T13:18:42.701Z,10.67
2023-01-28T13:23:49.980Z,12.90
2023-01-28T13:28:53.508Z,12.90
2023-01-28T13:33:55.736Z,12.43
2023-01-28T13:39:20.438Z,12.57
2023-01-28T13:44:25.541Z,10.47
2023-01-28T13:49:34.843Z,9.90
2023-01-28T13:54:59.517Z,10.75
2023-01-28T14:00:28.101Z,9.77
2023-01-28T14:06:05.095Z,9.53
2023-01-28T14:11:38.626Z,12.27
2023-01-28T14:17:14.728Z,11.33
2023-01-28T14:22:20.060Z,9.67
2023-01-28T14:27:34.999Z,8.73
2023-01-28T14:32:37.301Z,10.20
2023-01-28T14:37:40.782Z,9.50
2023-01-28T14:42:49.254Z,8.57
2023-01-28T14:48:19.556Z,10.07
2023-01-28T14:53:56.643Z,8.38
2023-01-28T14:59:12.367Z,8.70
2023-01-28T15:04:31.062Z,9.00
2023-01-28T15:09:33.264Z,9.27
2023-01-28T15:14:35.475Z,9.03
2023-01-28T15:19:37.837Z,9.90
2023-01-28T15:24:55.433Z,8.73
2023-01-28T15:30:01.988Z,9.80
2023-01-28T15:35:14.379Z,9.37
2023-01-28T15:40:21.511Z,10.17
2023-01-28T15:45:26.236Z,9.60
2023-01-28T15:50:28.565Z,8.57
2023-01-28T15:55:36.157Z,8.70
2023-01-28T16:00:39.071Z,8.63
2023-01-28T16:05:42.707Z,8.23
2023-01-28T16:10:52.991Z,9.90
2023-01-28T16:15:57.106Z,9.43
2023-01-28T16:21:00.270Z,8.57
2023-01-28T16:26:25.306Z,8.53
2023-01-28T16:31:27.808Z,9.70
2023-01-28T16:36:30.436Z,8.50
2023-01-28T16:41:40.578Z,10.00
2023-01-28T16:46:44.474Z,9.27
2023-01-28T16:51:47.180Z,10.73
2023-01-28T16:56:49.663Z,8.67
2023-01-28T17:01:52.209Z,9.27
2023-01-28T17:06:54.615Z,8.73
2023-01-28T17:11:57.496Z,8.20
2023-01-28T17:16:59.776Z,8.07
2023-01-28T17:22:02.789Z,9.77
2023-01-28T17:27:06.107Z,9.17
2023-01-28T17:32:08.630Z,9.90
2023-01-28T17:37:11.003Z,9.80
2023-01-28T17:42:13.584Z,10.17
2023-01-28T17:47:16.174Z,10.73
2023-01-28T17:52:18.678Z,11.63
2023-01-28T17:57:21.358Z,10.07
2023-01-28T18:02:24.407Z,12.83
2023-01-28T18:07:26.717Z,14.13
2023-01-28T18:12:29.101Z,15.23
2023-01-28T18:17:31.415Z,11.80
2023-01-28T18:22:34.091Z,12.90
2023-01-28T18:27:36.438Z,11.40
2023-01-28T18:32:39.413Z,11.80
2023-01-28T18:37:44.418Z,11.00
2023-01-28T18:42:46.677Z,9.50
2023-01-28T18:47:49.074Z,9.57
2023-01-28T18:52:53.809Z,9.03
2023-01-28T18:57:57.363Z,9.30
2023-01-28T19:03:01.422Z,8.90
2023-01-28T19:08:06.139Z,9.83
2023-01-28T19:13:08.468Z,11.17
2023-01-28T19:18:10.923Z,10.17
2023-01-28T19:23:13.569Z,9.70
2023-01-28T19:28:15.982Z,7.60
2023-01-28T19:33:18.424Z,8.53
2023-01-28T19:38:20.915Z,7.10
2023-01-28T19:43:23.991Z,8.80
2023-01-28T19:48:26.606Z,7.50
2023-01-28T19:53:29.211Z,6.97
2023-01-28T19:58:40.052Z,8.00
2023-01-28T20:03:42.730Z,7.07
2023-01-28T20:08:45.642Z,8.73
2023-01-28T20:13:49.618Z,7.73
2023-01-28T20:18:57.227Z,9.07
2023-01-28T20:24:04.775Z,9.17
2023-01-28T20:29:13.178Z,7.40
2023-01-28T20:34:17.726Z,8.10
2023-01-28T20:39:20.077Z,9.23
2023-01-28T20:44:22.596Z,7.73
2023-01-28T20:49:27.886Z,8.47
2023-01-28T20:54:30.339Z,8.40
2023-01-28T20:59:32.541Z,8.63
2023-01-28T21:04:37.831Z,8.53
2023-01-28T21:09:40.243Z,8.57
2023-01-28T21:14:45.413Z,8.13
2023-01-28T21:19:47.550Z,8.80
2023-01-28T21:24:51.380Z,8.73
2023-01-28T21:29:53.545Z,9.70
2023-01-28T21:34:55.792Z,8.73
2023-01-28T21:39:57.935Z,9.30
2023-01-28T21:45:00.110Z,9.17
2023-01-28T21:50:02.737Z,7.80
2023-01-28T21:55:06.051Z,9.73
2023-01-28T22:00:10.023Z,8.33
2023-01-28T22:05:15.003Z,7.87
2023-01-28T22:10:17.755Z,8.53
2023-01-28T22:15:20.267Z,10.33
2023-01-28T22:20:22.456Z,8.27
2023-01-28T22:25:27.235Z,9.00
2023-01-28T22:30:29.738Z,7.70
2023-01-28T22:35:32.093Z,7.93
2023-01-28T22:40:34.889Z,8.43
2023-01-28T22:45:37.105Z,8.30
2023-01-28T22:50:39.285Z,8.07
2023-01-28T22:55:41.453Z,7.20
2023-01-28T23:00:43.622Z,7.27
2023-01-28T23:05:46.113Z,5.73
2023-01-28T23:10:53.598Z,5.13
2023-01-28T23:16:14.237Z,4.63
2023-01-28T23:21:37.548Z,3.77
2023-01-28T23:26:39.769Z,3.90
2023-01-28T23:31:43.842Z,3.70
2023-01-28T23:36:46.055Z,4.03
2023-01-28T23:41:48.154Z,4.00
2023-01-28T23:46:50.278Z,3.47
2023-01-28T23:51:52.563Z,4.43
2023-01-28T23:56:54.871Z,3.50
